Time;durP1;ratioP1;P1;durP2;ratioP2;P2;SDS_P1;SDS_P2;PMS_P1;PMS_P2;Temp;Humidity;BMP_temperature;BMP_pressure;BME280_temperature;BME280_humidity;BME280_pressure;Samples;Min_cycle;Max_cycle;Signal;HPM_P1;HPM_P2
2022/08/03 00:01:40;;;;;;;22.48;3.42;;;21.20;99.90;;;;;;5046537;28;20242;-60
2022/08/03 00:04:06;;;;;;;16.10;3.47;;;21.20;99.90;;;;;;5043068;28;20191;-59
2022/08/03 00:06:33;;;;;;;26.70;3.50;;;21.20;99.90;;;;;;5053173;28;20191;-59
2022/08/03 00:08:59;;;;;;;17.27;3.33;;;21.20;99.90;;;;;;5052843;28;20306;-59
2022/08/03 00:11:25;;;;;;;12.88;3.20;;;21.20;99.90;;;;;;5048119;28;20187;-60
2022/08/03 00:13:51;;;;;;;17.67;3.67;;;21.10;99.90;;;;;;5039320;28;20184;-64
2022/08/03 00:16:17;;;;;;;14.80;3.15;;;21.20;99.90;;;;;;5032668;28;20328;-60
2022/08/03 00:18:43;;;;;;;18.05;3.75;;;21.10;99.90;;;;;;5050371;28;20241;-59
2022/08/03 00:21:09;;;;;;;18.50;3.40;;;21.10;99.90;;;;;;5049992;28;20696;-60
2022/08/03 00:23:35;;;;;;;15.25;3.30;;;21.10;99.90;;;;;;5035810;28;20191;-59
2022/08/03 00:26:01;;;;;;;20.40;3.55;;;21.10;99.90;;;;;;5044804;28;20185;-60
2022/08/03 00:28:27;;;;;;;15.77;3.58;;;21.10;99.90;;;;;;5050398;28;20662;-60
2022/08/03 00:30:54;;;;;;;18.55;3.92;;;21.10;99.90;;;;;;5043083;28;20196;-60
2022/08/03 00:33:21;;;;;;;13.13;3.88;;;21.10;99.90;;;;;;5024676;28;20176;-58
2022/08/03 00:35:47;;;;;;;14.52;3.47;;;21.00;99.90;;;;;;5044725;28;20232;-58
2022/08/03 00:38:12;;;;;;;23.92;3.85;;;21.00;99.90;;;;;;5048395;28;20187;-58
2022/08/03 00:40:38;;;;;;;18.50;3.88;;;21.00;99.90;;;;;;5040710;28;20207;-58
2022/08/03 00:43:06;;;;;;;16.90;3.50;;;21.00;99.90;;;;;;5040391;28;20243;-60
2022/08/03 00:45:37;;;;;;;24.08;5.22;;;21.00;99.90;;;;;;5039657;28;20194;-60
2022/08/03 00:48:05;;;;;;;15.77;3.72;;;21.00;99.90;;;;;;5036664;28;20190;-58
2022/08/03 00:50:35;;;;;;;18.70;3.83;;;21.00;99.90;;;;;;5044062;28;20190;-58
2022/08/03 00:53:03;;;;;;;18.40;3.30;;;21.00;99.90;;;;;;5044924;28;20649;-59
2022/08/03 00:55:29;;;;;;;11.93;3.55;;;21.00;99.90;;;;;;5020535;28;20275;-58
2022/08/03 00:57:58;;;;;;;19.48;3.38;;;21.00;99.90;;;;;;5034498;28;20180;-58
2022/08/03 01:00:25;;;;;;;25.33;4.63;;;20.90;99.90;;;;;;5038174;28;20192;-58
2022/08/03 01:02:52;;;;;;;13.48;3.25;;;20.90;99.90;;;;;;5032171;28;20191;-61
2022/08/03 01:05:20;;;;;;;17.58;3.35;;;20.90;99.90;;;;;;5017374;28;20188;-58
2022/08/03 01:07:53;;;;;;;18.40;3.17;;;20.80;99.90;;;;;;5041766;28;20225;-58
2022/08/03 01:10:46;;;;;;;16.40;3.50;;;20.80;99.90;;;;;;5051988;28;20283;-58
2022/08/03 01:13:37;;;;;;;14.40;3.75;;;20.80;99.90;;;;;;5044750;28;20191;-59
2022/08/03 01:16:25;;;;;;;22.63;3.60;;;20.80;99.90;;;;;;5044369;28;20651;-58
2022/08/03 01:19:01;;;;;;;21.25;5.10;;;20.80;99.90;;;;;;5034732;28;20219;-59
2022/08/03 01:21:55;;;;;;;30.77;4.03;;;20.80;99.90;;;;;;5033346;28;20222;-56
2022/08/03 01:24:48;;;;;;;14.57;3.58;;;20.80;99.90;;;;;;5011935;28;20187;-57
2022/08/03 01:28:09;;;;;;;23.40;3.92;;;20.70;99.90;;;;;;5043036;28;20180;-59
2022/08/03 01:30:38;;;;;;;20.70;3.38;;;20.70;99.90;;;;;;5022615;28;20198;-57
2022/08/03 01:33:12;;;;;;;22.52;3.72;;;20.70;99.90;;;;;;5053290;28;20219;-58
2022/08/03 01:35:43;;;;;;;18.60;3.78;;;20.70;99.90;;;;;;5050691;28;20265;-58
2022/08/03 01:38:14;;;;;;;16.27;4.10;;;20.60;99.90;;;;;;5037890;28;20176;-58
2022/08/03 01:40:41;;;;;;;20.67;4.95;;;20.60;99.90;;;;;;5038461;28;20290;-57
2022/08/03 01:43:13;;;;;;;16.92;3.90;;;20.70;99.90;;;;;;5037488;28;20262;-58
2022/08/03 01:45:39;;;;;;;25.70;3.60;;;20.60;99.90;;;;;;5020561;28;20263;-58
2022/08/03 01:48:06;;;;;;;23.25;4.82;;;20.60;99.90;;;;;;5035582;28;20172;-58
2022/08/03 01:50:33;;;;;;;25.13;3.58;;;20.60;99.90;;;;;;5033430;28;20183;-57
2022/08/03 01:52:59;;;;;;;16.08;4.28;;;20.60;99.90;;;;;;5036970;28;20176;-58
2022/08/03 01:55:27;;;;;;;21.15;3.85;;;20.50;99.90;;;;;;5032264;28;20549;-57
2022/08/03 01:57:55;;;;;;;21.20;4.13;;;20.50;99.90;;;;;;5037838;28;20160;-58
2022/08/03 02:00:24;;;;;;;19.75;3.80;;;20.50;99.90;;;;;;5053140;28;20651;-58
2022/08/03 02:02:53;;;;;;;21.63;3.78;;;20.50;99.90;;;;;;5043361;28;20194;-59
2022/08/03 02:05:19;;;;;;;20.50;3.75;;;20.50;99.90;;;;;;5036516;28;20184;-58
2022/08/03 02:07:46;;;;;;;17.85;3.60;;;20.50;99.90;;;;;;5036333;28;20264;-58
2022/08/03 02:10:15;;;;;;;19.83;3.67;;;20.40;99.90;;;;;;5038655;28;20227;-59
2022/08/03 02:12:44;;;;;;;16.08;3.58;;;20.40;99.90;;;;;;5037312;28;20186;-59
2022/08/03 02:15:11;;;;;;;20.17;3.53;;;20.40;99.90;;;;;;5031550;28;20188;-59
2022/08/03 02:17:38;;;;;;;17.58;3.47;;;20.40;99.90;;;;;;5034982;28;20210;-59
2022/08/03 02:20:06;;;;;;;20.88;4.07;;;20.40;99.90;;;;;;5034787;28;20596;-58
2022/08/03 02:22:33;;;;;;;26.83;5.60;;;20.40;99.90;;;;;;5043586;28;20233;-58
2022/08/03 02:24:59;;;;;;;17.45;4.28;;;20.40;99.90;;;;;;5035324;28;20225;-59
2022/08/03 02:27:26;;;;;;;21.50;4.28;;;20.40;99.90;;;;;;5048537;28;20180;-59
2022/08/03 02:29:57;;;;;;;21.23;4.82;;;20.40;99.90;;;;;;5034938;28;20184;-59
2022/08/03 02:32:30;;;;;;;32.95;5.15;;;20.40;99.90;;;;;;5035040;28;20223;-58
2022/08/03 02:34:58;;;;;;;15.50;3.80;;;20.30;99.90;;;;;;5034977;28;20192;-59
2022/08/03 02:37:29;;;;;;;10.60;3.13;;;20.40;99.90;;;;;;5050563;28;20195;-59
2022/08/03 02:40:00;;;;;;;13.60;3.97;;;20.40;99.90;;;;;;5036156;28;20191;-58
2022/08/03 02:42:28;;;;;;;21.45;4.25;;;20.30;99.90;;;;;;5054522;28;20219;-59
2022/08/03 02:44:57;;;;;;;17.13;4.05;;;20.30;99.90;;;;;;5034209;28;20690;-59
2022/08/03 02:47:26;;;;;;;18.65;3.70;;;20.30;99.90;;;;;;5054277;28;20176;-59
2022/08/03 02:49:54;;;;;;;15.88;3.90;;;20.30;99.90;;;;;;5040159;28;20593;-59
2022/08/03 02:52:24;;;;;;;21.88;3.80;;;20.30;99.90;;;;;;5052055;28;20175;-58
2022/08/03 02:54:57;;;;;;;15.80;3.50;;;20.20;99.90;;;;;;5034962;28;20176;-61
2022/08/03 02:57:26;;;;;;;27.02;3.70;;;20.20;99.90;;;;;;5055035;28;20182;-58
2022/08/03 02:59:54;;;;;;;17.65;3.50;;;20.20;99.90;;;;;;5051188;28;20187;-59
2022/08/03 03:02:20;;;;;;;18.98;3.78;;;20.20;99.90;;;;;;5037277;28;20224;-62
2022/08/03 03:04:50;;;;;;;21.95;3.85;;;20.20;99.90;;;;;;5021186;28;20188;-60
2022/08/03 03:07:17;;;;;;;16.50;3.70;;;20.10;99.90;;;;;;5052254;28;20238;-60
2022/08/03 03:09:43;;;;;;;17.27;3.90;;;20.10;99.90;;;;;;5042462;28;20227;-59
2022/08/03 03:12:12;;;;;;;17.02;3.70;;;20.10;99.90;;;;;;5040695;28;20187;-58
2022/08/03 03:14:38;;;;;;;19.42;4.43;;;20.10;99.90;;;;;;5041619;28;20242;-63
2022/08/03 03:17:08;;;;;;;19.33;4.15;;;20.10;99.90;;;;;;5058174;28;20301;-59
2022/08/03 03:19:35;;;;;;;20.48;5.18;;;20.10;99.90;;;;;;5055366;28;20184;-65
2022/08/03 03:22:05;;;;;;;24.63;4.93;;;20.10;99.90;;;;;;5056723;28;20669;-59
2022/08/03 03:24:33;;;;;;;23.00;4.45;;;20.00;99.90;;;;;;5043003;28;20192;-59
2022/08/03 03:26:59;;;;;;;24.67;4.38;;;20.10;99.90;;;;;;5054138;28;20190;-59
2022/08/03 03:29:26;;;;;;;28.98;5.00;;;20.00;99.90;;;;;;5037816;28;20187;-57
2022/08/03 03:31:52;;;;;;;17.58;4.32;;;20.00;99.90;;;;;;5043604;28;20191;-57
2022/08/03 03:34:18;;;;;;;20.98;4.28;;;20.00;99.90;;;;;;5035965;28;20184;-54
2022/08/03 03:36:44;;;;;;;24.58;4.40;;;20.00;99.90;;;;;;5053277;28;20187;-54
2022/08/03 03:39:11;;;;;;;20.42;4.38;;;19.90;99.90;;;;;;5045633;28;20275;-59
2022/08/03 03:41:38;;;;;;;18.08;3.65;;;19.90;99.90;;;;;;5042291;28;20235;-71
2022/08/03 03:44:04;;;;;;;21.10;4.32;;;19.90;99.90;;;;;;5049442;28;20263;-60
2022/08/03 03:46:30;;;;;;;23.73;4.15;;;19.90;99.90;;;;;;5055056;28;20249;-57
2022/08/03 03:48:56;;;;;;;15.18;3.92;;;19.90;99.90;;;;;;5039152;28;20272;-58
2022/08/03 03:51:22;;;;;;;15.57;3.97;;;19.90;99.90;;;;;;5053423;28;20200;-57
2022/08/03 03:53:59;;;;;;;16.20;4.40;;;19.90;99.90;;;;;;5039748;28;20192;-57
2022/08/03 03:56:25;;;;;;;15.73;4.18;;;19.80;99.90;;;;;;5040742;28;20203;-59
2022/08/03 03:58:51;;;;;;;18.40;4.00;;;19.80;99.90;;;;;;5041698;28;20271;-60
2022/08/03 04:01:17;;;;;;;18.08;3.78;;;19.80;99.90;;;;;;5051329;28;20229;-59
2022/08/03 04:03:43;;;;;;;19.83;3.83;;;19.80;99.90;;;;;;5040728;28;20184;-58
2022/08/03 04:11:46;;;;;;;22.52;4.15;;;19.70;99.90;;;;;;5045792;28;20236;-60
2022/08/03 04:14:19;;;;;;;21.55;4.13;;;19.70;99.90;;;;;;5044755;28;20242;-59
2022/08/03 04:16:49;;;;;;;23.50;3.97;;;19.70;99.90;;;;;;5053830;28;20175;-59
2022/08/03 04:19:37;;;;;;;19.77;4.25;;;19.70;99.90;;;;;;5055147;28;20209;-58
2022/08/03 04:22:06;;;;;;;21.35;3.90;;;19.70;99.90;;;;;;5052152;28;20195;-59
2022/08/03 04:24:47;;;;;;;15.93;4.47;;;19.80;99.90;;;;;;5052361;28;20240;-60
2022/08/03 04:27:16;;;;;;;17.90;4.10;;;19.80;99.90;;;;;;5050177;28;20223;-60
2022/08/03 04:29:46;;;;;;;19.52;4.45;;;19.80;99.90;;;;;;5039865;28;20183;-60
2022/08/03 04:32:13;;;;;;;17.15;4.60;;;19.80;99.90;;;;;;5031520;28;20172;-61
2022/08/03 04:34:39;;;;;;;19.17;4.43;;;19.80;99.90;;;;;;5038115;28;20183;-59
2022/08/03 04:37:11;;;;;;;18.17;4.75;;;19.80;99.90;;;;;;5048559;28;20183;-59
2022/08/03 04:39:38;;;;;;;20.77;4.28;;;19.70;99.90;;;;;;5042003;28;20690;-64
2022/08/03 04:42:07;;;;;;;18.33;4.80;;;19.80;99.90;;;;;;5032433;28;20212;-58
2022/08/03 04:44:43;;;;;;;21.40;4.40;;;19.80;99.90;;;;;;5023107;28;20587;-66
2022/08/03 04:47:08;;;;;;;22.55;4.85;;;19.80;99.90;;;;;;5049905;28;20186;-65
2022/08/03 04:49:36;;;;;;;14.88;4.05;;;19.80;99.90;;;;;;5043573;28;20651;-63
2022/08/03 04:52:03;;;;;;;20.70;4.45;;;19.80;99.90;;;;;;5034743;28;20191;-59
2022/08/03 04:54:30;;;;;;;18.13;4.53;;;19.90;99.90;;;;;;5051386;28;20181;-60
2022/08/03 04:56:55;;;;;;;23.23;4.25;;;19.80;99.90;;;;;;5046458;28;20187;-62
2022/08/03 04:59:21;;;;;;;21.45;4.82;;;19.80;99.90;;;;;;5034237;28;20228;-59
2022/08/03 05:01:47;;;;;;;20.52;4.68;;;19.80;99.90;;;;;;5031048;28;20215;-62
2022/08/03 05:04:13;;;;;;;21.42;5.28;;;19.90;99.90;;;;;;5031815;28;20636;-62
2022/08/03 05:06:39;;;;;;;18.98;5.10;;;19.90;99.90;;;;;;5034442;28;20184;-62
2022/08/03 05:09:06;;;;;;;16.10;4.90;;;19.90;99.90;;;;;;5031891;28;20268;-61
2022/08/03 05:11:32;;;;;;;27.88;5.45;;;19.90;99.90;;;;;;5032616;28;20270;-73
2022/08/03 05:13:57;;;;;;;19.10;4.90;;;19.90;99.90;;;;;;5024033;28;20274;-66
2022/08/03 05:16:24;;;;;;;21.52;4.97;;;20.00;99.90;;;;;;5022747;28;20215;-59
2022/08/03 05:18:50;;;;;;;24.85;5.55;;;20.00;99.90;;;;;;5032769;28;20206;-66
2022/08/03 05:21:16;;;;;;;21.92;5.07;;;20.00;99.90;;;;;;5031863;28;20212;-60
2022/08/03 05:23:43;;;;;;;19.20;5.38;;;20.00;99.90;;;;;;5032366;28;20266;-57
2022/08/03 05:26:10;;;;;;;17.38;4.63;;;20.00;99.90;;;;;;5016348;28;20245;-58
2022/08/03 05:28:37;;;;;;;22.67;5.28;;;20.00;99.90;;;;;;5042662;28;20192;-58
2022/08/03 05:31:02;;;;;;;23.25;5.18;;;20.00;99.90;;;;;;5042995;28;20187;-59
2022/08/03 05:33:28;;;;;;;23.17;5.10;;;20.10;99.90;;;;;;5036664;28;20242;-59
2022/08/03 05:35:54;;;;;;;28.52;5.57;;;20.10;99.90;;;;;;5038718;28;20237;-58
2022/08/03 05:38:21;;;;;;;23.42;5.68;;;20.10;99.90;;;;;;5049598;28;20184;-50
2022/08/03 05:40:47;;;;;;;26.48;5.07;;;20.10;99.90;;;;;;5042621;28;20610;-53
2022/08/03 05:43:12;;;;;;;20.85;5.03;;;20.20;99.90;;;;;;5032252;28;20195;-54
2022/08/03 05:45:38;;;;;;;24.27;5.72;;;20.20;99.90;;;;;;5035407;28;20207;-54
2022/08/03 05:48:05;;;;;;;20.67;5.55;;;20.30;99.90;;;;;;5047411;28;20213;-64
2022/08/03 05:50:31;;;;;;;16.15;4.95;;;20.30;99.90;;;;;;5033479;28;20187;-52
2022/08/03 05:52:58;;;;;;;28.00;5.25;;;20.30;99.90;;;;;;5033639;28;20202;-54
2022/08/03 05:55:24;;;;;;;21.52;4.93;;;20.30;99.90;;;;;;5029502;28;20556;-54
2022/08/03 05:57:50;;;;;;;20.80;5.00;;;20.40;99.90;;;;;;5023456;28;20211;-54
2022/08/03 06:00:16;;;;;;;27.08;5.40;;;20.40;99.90;;;;;;5049591;28;20720;-55
2022/08/03 06:02:42;;;;;;;22.50;5.30;;;20.50;99.90;;;;;;5052500;28;20218;-54
2022/08/03 06:05:09;;;;;;;28.27;5.78;;;20.50;99.90;;;;;;5045691;28;20191;-55
2022/08/03 06:07:35;;;;;;;28.42;5.90;;;20.60;99.90;;;;;;5046435;28;20272;-60
2022/08/03 06:10:01;;;;;;;26.80;5.45;;;20.60;99.90;;;;;;5033392;28;20235;-54
2022/08/03 06:12:28;;;;;;;25.65;5.88;;;20.60;99.90;;;;;;5031734;28;20222;-51
2022/08/03 06:14:55;;;;;;;32.22;5.80;;;20.60;99.90;;;;;;5014391;28;20254;-55
2022/08/03 06:17:21;;;;;;;21.80;5.30;;;20.60;99.90;;;;;;5035521;28;20186;-55
2022/08/03 06:19:46;;;;;;;32.13;5.75;;;20.60;99.90;;;;;;5050202;28;20179;-55
2022/08/03 06:22:12;;;;;;;24.67;5.45;;;20.70;99.90;;;;;;5044701;28;20208;-52
2022/08/03 06:24:38;;;;;;;26.70;5.95;;;20.70;99.90;;;;;;5030070;28;20202;-57
2022/08/03 06:27:04;;;;;;;32.78;5.60;;;20.70;99.90;;;;;;5051190;28;20194;-55
2022/08/03 06:29:30;;;;;;;27.02;6.03;;;20.70;99.90;;;;;;5033074;28;20595;-54
2022/08/03 06:31:56;;;;;;;23.13;5.18;;;20.80;99.90;;;;;;5043577;28;20241;-53
2022/08/03 06:34:22;;;;;;;23.73;5.60;;;20.80;99.90;;;;;;5017358;28;20250;-55
2022/08/03 06:36:49;;;;;;;26.98;5.65;;;20.80;99.90;;;;;;5037543;28;20203;-53
2022/08/03 06:39:16;;;;;;;27.88;5.93;;;20.80;99.90;;;;;;5036600;28;20255;-55
2022/08/03 06:41:42;;;;;;;27.23;5.15;;;20.80;99.90;;;;;;5039725;28;20220;-55
2022/08/03 06:44:08;;;;;;;26.08;5.10;;;20.90;99.90;;;;;;5025335;28;20195;-52
2022/08/03 06:46:34;;;;;;;27.38;5.47;;;20.90;99.90;;;;;;5021543;28;20187;-55
2022/08/03 06:49:00;;;;;;;31.50;5.47;;;21.00;99.90;;;;;;5021372;28;20179;-54
2022/08/03 06:51:26;;;;;;;28.38;5.72;;;21.00;99.90;;;;;;5052393;28;20651;-54
2022/08/03 06:53:52;;;;;;;28.17;5.35;;;21.10;99.90;;;;;;5030029;28;20647;-55
2022/08/03 06:56:19;;;;;;;24.70;4.82;;;21.10;99.90;;;;;;5054025;28;20187;-53
2022/08/03 06:58:46;;;;;;;26.90;5.28;;;21.10;99.90;;;;;;5055693;28;20183;-55
2022/08/03 07:01:12;;;;;;;28.90;5.03;;;21.20;99.90;;;;;;4991716;28;20220;-55
2022/08/03 07:03:39;;;;;;;22.98;5.57;;;21.20;99.90;;;;;;5036396;28;20194;-55
2022/08/03 07:06:05;;;;;;;31.92;5.60;;;21.30;99.90;;;;;;5049740;28;20695;-56
2022/08/03 07:08:31;;;;;;;28.70;5.28;;;21.30;99.90;;;;;;5050875;28;20636;-54
2022/08/03 07:10:59;;;;;;;31.58;5.68;;;21.40;99.90;;;;;;5026614;28;20667;-54
2022/08/03 07:13:25;;;;;;;37.80;5.60;;;21.40;99.90;;;;;;5037606;28;20282;-57
2022/08/03 07:15:51;;;;;;;36.90;5.47;;;21.40;99.90;;;;;;5030474;28;20263;-56
2022/08/03 07:18:17;;;;;;;28.02;5.40;;;21.50;99.90;;;;;;5033674;28;20188;-58
2022/08/03 07:20:43;;;;;;;23.75;6.63;;;21.60;99.90;;;;;;5042909;28;20214;-56
2022/08/03 07:23:09;;;;;;;31.92;5.82;;;21.60;99.90;;;;;;5037501;28;21045;-58
2022/08/03 07:25:35;;;;;;;25.90;5.45;;;21.70;99.90;;;;;;5046882;28;20270;-56
2022/08/03 07:28:01;;;;;;;28.17;5.47;;;21.70;99.90;;;;;;5025579;28;20238;-57
2022/08/03 07:30:26;;;;;;;27.05;5.15;;;21.80;99.90;;;;;;5040507;28;20226;-57
2022/08/03 07:32:52;;;;;;;37.22;5.32;;;21.80;99.90;;;;;;5048021;28;20523;-59
2022/08/03 07:35:18;;;;;;;28.77;5.30;;;21.80;99.90;;;;;;5042327;28;20236;-58
2022/08/03 07:37:44;;;;;;;30.10;5.22;;;21.80;99.90;;;;;;5032083;28;20233;-56
2022/08/03 07:40:10;;;;;;;33.80;5.75;;;21.80;99.90;;;;;;5036336;28;20266;-56
2022/08/03 07:42:36;;;;;;;29.27;5.38;;;21.80;99.90;;;;;;5055065;28;20210;-56
2022/08/03 07:45:03;;;;;;;19.10;4.47;;;21.80;99.90;;;;;;5052098;28;20192;-59
2022/08/03 07:47:30;;;;;;;28.50;4.95;;;21.80;99.90;;;;;;5053358;28;20270;-59
2022/08/03 07:49:56;;;;;;;30.13;5.90;;;21.80;99.90;;;;;;5036825;28;20183;-58
2022/08/03 07:55:08;;;;;;;24.38;5.15;;;21.80;99.90;;;;;;5048485;28;20250;-62
2022/08/03 07:57:34;;;;;;;26.30;5.40;;;21.90;99.90;;;;;;5031204;28;20184;-56
2022/08/03 08:00:00;;;;;;;27.27;5.22;;;21.90;99.90;;;;;;5043487;28;20230;-58
2022/08/03 08:02:26;;;;;;;27.98;6.35;;;21.90;99.90;;;;;;5054132;28;20710;-57
2022/08/03 08:04:52;;;;;;;39.40;7.18;;;21.90;99.90;;;;;;5052366;28;20187;-60
2022/08/03 08:07:17;;;;;;;34.38;7.68;;;21.90;99.90;;;;;;5054357;28;20821;-59
2022/08/03 08:09:43;;;;;;;26.20;5.93;;;21.90;99.90;;;;;;5040841;28;20270;-58
2022/08/03 08:12:11;;;;;;;32.42;6.72;;;22.00;99.90;;;;;;5031997;28;20194;-56
2022/08/03 08:14:37;;;;;;;31.23;6.18;;;22.10;99.90;;;;;;5033719;28;20192;-64
2022/08/03 08:17:03;;;;;;;36.33;6.20;;;22.10;99.90;;;;;;5048440;28;20180;-58
2022/08/03 08:19:29;;;;;;;31.20;6.65;;;22.20;99.90;;;;;;5033644;28;20203;-58
2022/08/03 08:21:55;;;;;;;27.85;6.90;;;22.20;99.90;;;;;;5016110;28;20203;-56
2022/08/03 08:24:21;;;;;;;26.70;7.00;;;22.30;99.90;;;;;;5039476;28;20274;-56
2022/08/03 08:26:46;;;;;;;26.25;6.53;;;22.30;99.90;;;;;;5031086;28;20555;-59
2022/08/03 08:29:12;;;;;;;27.90;7.45;;;22.30;99.90;;;;;;5032483;28;20299;-58
2022/08/03 08:31:39;;;;;;;27.40;6.40;;;22.30;99.90;;;;;;5017904;28;20196;-63
2022/08/03 08:34:06;;;;;;;29.73;7.22;;;22.40;99.90;;;;;;5037873;28;20187;-59
2022/08/03 08:36:33;;;;;;;25.80;6.40;;;22.50;99.90;;;;;;5036261;28;20184;-57
2022/08/03 08:38:59;;;;;;;25.85;5.30;;;22.50;99.90;;;;;;5032327;28;20271;-58
2022/08/03 08:41:25;;;;;;;23.40;5.60;;;22.60;99.90;;;;;;5032469;28;20199;-54
2022/08/03 08:43:52;;;;;;;30.13;5.55;;;22.60;99.90;;;;;;5032567;28;20195;-57
2022/08/03 08:46:19;;;;;;;24.33;5.18;;;22.70;99.90;;;;;;5028267;28;20183;-58
2022/08/03 08:48:47;;;;;;;31.50;5.70;;;22.70;99.90;;;;;;5039211;28;20184;-57
2022/08/03 08:51:15;;;;;;;23.10;5.10;;;22.70;99.90;;;;;;5044781;28;20191;-53
2022/08/03 08:53:44;;;;;;;24.88;6.05;;;22.80;99.90;;;;;;5053286;28;20261;-59
2022/08/03 08:56:15;;;;;;;29.65;4.82;;;22.80;99.90;;;;;;5051331;28;20651;-55
2022/08/03 08:58:47;;;;;;;22.42;7.10;;;22.80;99.90;;;;;;5053236;28;20168;-53
2022/08/03 09:01:13;;;;;;;25.00;4.93;;;22.80;99.90;;;;;;5047839;28;20293;-55
2022/08/03 09:03:40;;;;;;;21.33;4.90;;;22.80;99.90;;;;;;5053496;28;20222;-55
2022/08/03 09:06:05;;;;;;;30.42;5.38;;;22.90;99.90;;;;;;5049886;28;20183;-58
2022/08/03 09:08:32;;;;;;;26.23;5.43;;;22.90;99.90;;;;;;5026930;28;20258;-56
2022/08/03 09:10:58;;;;;;;35.67;6.10;;;23.00;99.90;;;;;;5033682;28;20231;-57
2022/08/03 09:13:25;;;;;;;29.88;4.93;;;23.00;99.90;;;;;;5022249;28;20180;-58
2022/08/03 09:16:23;;;;;;;23.55;4.68;;;23.00;99.90;;;;;;5024354;28;20191;-59
2022/08/03 09:18:52;;;;;;;21.70;5.03;;;23.10;99.90;;;;;;4996514;28;20290;-59
2022/08/03 09:21:27;;;;;;;20.02;4.45;;;23.20;99.90;;;;;;5025214;28;20652;-58
2022/08/03 09:23:55;;;;;;;35.40;5.38;;;23.30;99.90;;;;;;5032778;28;20270;-59
2022/08/03 09:26:27;;;;;;;27.08;5.15;;;23.30;99.90;;;;;;5040225;28;20550;-58
2022/08/03 09:29:01;;;;;;;27.58;4.65;;;23.20;99.90;;;;;;5049676;28;20187;-59
2022/08/03 09:31:33;;;;;;;23.02;4.47;;;23.20;99.90;;;;;;5047017;28;20301;-59
2022/08/03 09:34:04;;;;;;;29.95;5.05;;;23.20;99.90;;;;;;5032716;28;20191;-59
2022/08/03 09:36:38;;;;;;;25.85;4.82;;;23.20;99.90;;;;;;5015513;28;20713;-59
2022/08/03 09:39:11;;;;;;;27.85;5.28;;;23.10;99.90;;;;;;5036458;28;20187;-59
2022/08/03 09:41:39;;;;;;;22.60;4.38;;;23.20;99.90;;;;;;5032763;28;20619;-66
2022/08/03 09:44:05;;;;;;;19.50;4.63;;;23.10;99.90;;;;;;5048085;28;20194;-59
2022/08/03 09:46:46;;;;;;;24.48;5.03;;;23.10;99.90;;;;;;5050545;28;20218;-58
2022/08/03 09:49:12;;;;;;;25.75;4.60;;;23.10;99.90;;;;;;5033504;28;20587;-59
2022/08/03 09:51:39;;;;;;;23.10;4.72;;;23.10;99.90;;;;;;5050495;28;20195;-59
2022/08/03 09:54:05;;;;;;;24.45;4.80;;;23.10;99.90;;;;;;5047044;28;20191;-55
2022/08/03 09:56:46;;;;;;;17.33;4.22;;;23.10;99.90;;;;;;5035611;28;20198;-59
2022/08/03 09:59:22;;;;;;;26.75;4.72;;;23.10;99.90;;;;;;5032842;28;20188;-58
2022/08/03 10:01:48;;;;;;;24.08;5.05;;;23.10;99.90;;;;;;5010517;28;20712;-58
2022/08/03 10:04:18;;;;;;;25.08;4.70;;;23.10;99.90;;;;;;5014579;28;20191;-58
2022/08/03 10:07:00;;;;;;;25.98;4.70;;;23.20;99.90;;;;;;5038164;28;20183;-57
2022/08/03 10:09:26;;;;;;;21.50;4.28;;;23.20;99.90;;;;;;5032317;28;20298;-58
2022/08/03 10:11:53;;;;;;;20.88;3.92;;;23.20;99.90;;;;;;5045637;28;20278;-58
2022/08/03 10:14:21;;;;;;;17.55;4.35;;;23.30;99.90;;;;;;5050084;28;20807;-58
2022/08/03 10:16:47;;;;;;;22.17;4.47;;;23.40;99.90;;;;;;5048875;28;20575;-57
2022/08/03 10:19:14;;;;;;;23.23;5.03;;;23.40;99.90;;;;;;5052256;28;20667;-59
2022/08/03 10:21:47;;;;;;;20.08;4.40;;;23.60;99.90;;;;;;5039472;28;20233;-55
2022/08/03 10:24:16;;;;;;;24.98;5.28;;;23.60;99.90;;;;;;5052062;28;20568;-55
2022/08/03 10:26:45;;;;;;;26.10;4.45;;;23.60;99.90;;;;;;5024753;28;20639;-54
2022/08/03 10:29:20;;;;;;;28.00;4.97;;;23.70;99.90;;;;;;5033631;28;20821;-59
2022/08/03 10:31:48;;;;;;;28.15;4.60;;;23.80;99.90;;;;;;5033409;28;20192;-54
2022/08/03 10:34:21;;;;;;;22.58;5.35;;;23.90;99.90;;;;;;5032371;28;20588;-57
2022/08/03 10:36:49;;;;;;;24.73;4.45;;;24.00;99.90;;;;;;5028475;28;20636;-55
2022/08/03 10:39:18;;;;;;;29.17;5.15;;;24.00;99.90;;;;;;5031875;28;20265;-55
2022/08/03 10:41:46;;;;;;;23.63;4.70;;;24.10;99.90;;;;;;5048666;28;20615;-56
2022/08/03 10:44:19;;;;;;;22.13;4.40;;;24.20;99.90;;;;;;5052432;28;20262;-54
2022/08/03 10:46:50;;;;;;;27.83;4.43;;;24.30;99.90;;;;;;5038020;28;20586;-52
2022/08/03 10:49:19;;;;;;;25.23;4.72;;;24.30;99.90;;;;;;5052083;28;20195;-54
2022/08/03 10:51:46;;;;;;;20.30;4.70;;;24.40;99.90;;;;;;5048450;28;20198;-56
2022/08/03 10:54:34;;;;;;;20.35;4.05;;;24.40;99.90;;;;;;5022602;28;20179;-54
2022/08/03 10:59:44;;;;;;;26.52;4.35;;;24.50;99.90;;;;;;5049441;28;20179;-52
2022/08/03 11:02:11;;;;;;;24.05;4.10;;;24.50;99.90;;;;;;5050676;28;20269;-52
2022/08/03 11:04:37;;;;;;;25.25;4.00;;;24.60;99.90;;;;;;5039716;28;20187;-58
2022/08/03 11:07:32;;;;;;;22.52;4.28;;;24.60;99.90;;;;;;5017863;28;20180;-52
2022/08/03 11:09:58;;;;;;;18.42;4.25;;;24.70;99.90;;;;;;5020737;28;20632;-48
2022/08/03 11:12:32;;;;;;;26.45;4.43;;;24.70;99.90;;;;;;5034245;28;20189;-55
2022/08/03 11:15:01;;;;;;;21.48;4.20;;;24.70;99.90;;;;;;5050109;28;20529;-53
2022/08/03 11:17:27;;;;;;;25.15;4.40;;;24.70;99.90;;;;;;5040736;28;21790;-53
2022/08/03 11:19:53;;;;;;;19.55;3.95;;;24.80;99.90;;;;;;5030621;28;20643;-53
2022/08/03 11:22:20;;;;;;;21.17;4.40;;;24.90;99.90;;;;;;5037346;28;20322;-52
2022/08/03 11:24:49;;;;;;;18.67;3.83;;;24.90;99.90;;;;;;5033870;28;20188;-53
2022/08/03 11:27:34;;;;;;;16.65;3.90;;;24.90;99.90;;;;;;5052848;28;20183;-53
2022/08/03 11:30:09;;;;;;;20.80;4.10;;;24.80;99.90;;;;;;5025281;28;20179;-54
2022/08/03 11:32:45;;;;;;;20.17;4.18;;;24.80;99.90;;;;;;5053541;28;20182;-55
2022/08/03 11:35:17;;;;;;;16.00;3.80;;;24.90;99.90;;;;;;5043590;28;20187;-51
2022/08/03 11:37:55;;;;;;;22.88;4.15;;;24.90;99.90;;;;;;5052895;28;20619;-56
2022/08/03 11:40:45;;;;;;;16.60;4.28;;;25.00;99.90;;;;;;5048331;28;20616;-53
2022/08/03 11:43:29;;;;;;;22.70;4.57;;;25.10;99.90;;;;;;5016588;28;20250;-54
2022/08/03 11:45:59;;;;;;;23.13;4.53;;;25.20;99.90;;;;;;5036221;28;20664;-50
2022/08/03 11:48:31;;;;;;;18.75;3.92;;;25.40;99.90;;;;;;5033563;28;20241;-53
2022/08/03 11:50:57;;;;;;;21.70;9.52;;;25.40;99.90;;;;;;5039267;28;20616;-53
2022/08/03 11:53:23;;;;;;;19.42;4.10;;;25.50;99.90;;;;;;5035340;28;20184;-56
2022/08/03 11:55:49;;;;;;;22.45;4.32;;;25.60;99.90;;;;;;5005273;28;20195;-56
2022/08/03 11:58:16;;;;;;;23.75;3.97;;;25.70;99.90;;;;;;5033470;28;20188;-56
2022/08/03 12:00:43;;;;;;;18.67;4.32;;;25.70;99.90;;;;;;5041883;28;20183;-54
2022/08/03 12:03:13;;;;;;;20.88;4.65;;;25.80;99.90;;;;;;5048741;28;20188;-56
2022/08/03 12:05:50;;;;;;;18.17;4.63;;;25.70;99.90;;;;;;5041563;28;20187;-53
2022/08/03 12:08:26;;;;;;;21.70;4.45;;;25.80;99.90;;;;;;5054726;28;20187;-47
2022/08/03 12:10:55;;;;;;;17.98;4.55;;;25.80;99.90;;;;;;5052284;28;20222;-51
2022/08/03 12:13:22;;;;;;;22.17;4.15;;;25.80;99.90;;;;;;5045923;28;20693;-57
2022/08/03 12:15:52;;;;;;;23.02;4.45;;;25.90;99.90;;;;;;5044014;28;20196;-50
2022/08/03 12:18:20;;;;;;;22.63;3.88;;;25.90;99.90;;;;;;5047803;28;20249;-54
2022/08/03 12:20:47;;;;;;;29.80;4.20;;;26.00;99.90;;;;;;5050969;28;20206;-50
2022/08/03 12:23:14;;;;;;;29.10;4.40;;;26.10;99.90;;;;;;5043196;28;20266;-55
2022/08/03 12:25:42;;;;;;;23.65;4.43;;;26.20;99.90;;;;;;5018245;28;20185;-47
2022/08/03 12:28:15;;;;;;;22.25;4.18;;;26.20;99.90;;;;;;5043999;28;20195;-58
2022/08/03 12:30:41;;;;;;;19.80;3.83;;;26.30;99.90;;;;;;5041365;28;20189;-53
2022/08/03 12:33:20;;;;;;;19.85;4.15;;;26.40;99.90;;;;;;5042494;28;20188;-58
2022/08/03 12:35:48;;;;;;;19.38;4.07;;;26.50;99.90;;;;;;5042382;28;20262;-52
2022/08/03 12:38:19;;;;;;;27.75;4.13;;;26.60;99.90;;;;;;5025146;28;20187;-55
2022/08/03 12:40:53;;;;;;;21.98;4.45;;;26.70;99.90;;;;;;5048784;28;20195;-55
2022/08/03 12:43:20;;;;;;;18.27;3.60;;;26.70;99.90;;;;;;5040983;28;20521;-54
2022/08/03 12:45:46;;;;;;;22.58;3.72;;;26.80;99.90;;;;;;5016370;28;20195;-55
2022/08/03 12:48:11;;;;;;;16.63;3.58;;;26.90;99.90;;;;;;5016212;28;20191;-56
2022/08/03 12:50:38;;;;;;;31.13;4.45;;;27.10;99.90;;;;;;5037683;28;20289;-59
2022/08/03 12:53:07;;;;;;;21.17;3.75;;;27.20;99.40;;;;;;5033964;28;20198;-56
2022/08/03 12:55:33;;;;;;;17.60;3.80;;;27.40;99.10;;;;;;5036488;28;20214;-55